Time;durP1;ratioP1;P1;durP2;ratioP2;P2;SDS_P1;SDS_P2;PMS_P1;PMS_P2;Temp;Humidity;BMP_temperature;BMP_pressure;BME280_temperature;BME280_humidity;BME280_pressure;Samples;Min_cycle;Max_cycle;Signal;HPM_P1;HPM_P2
2023/03/19 00:00:07;;;;;;;;;;;;;;;17.49;59.72;101139.75;2080960;28;19975;-73
2023/03/19 00:01:09;;;;;;;;;;;;;;;17.49;59.69;101137.78;2083700;28;19928;-72
2023/03/19 00:02:12;;;;;;;;;;;;;;;17.49;59.42;101134.28;2083482;28;19974;-72
2023/03/19 00:03:18;;;;;;;;;;;;;;;17.49;59.48;101131.56;2081099;28;20569;-72
2023/03/19 00:04:23;;;;;;;;;;;;;;;17.49;59.50;101143.25;2075329;28;19968;-72
2023/03/19 00:05:25;;;;;;;;;;;;;;;17.47;59.47;101140.09;2066596;28;19973;-72
2023/03/19 00:06:27;;;;;;;;;;;;;;;17.49;59.35;101137.78;2074332;28;20353;-73
2023/03/19 00:07:29;;;;;;;;;;;;;;;17.49;59.57;101139.75;2082779;28;19932;-72
2023/03/19 00:08:33;;;;;;;;;;;;;;;17.49;59.47;101137.00;2081709;28;19924;-73
2023/03/19 00:09:35;;;;;;;;;;;;;;;17.49;59.63;101135.06;2085370;28;19925;-72
2023/03/19 00:10:38;;;;;;;;;;;;;;;17.49;59.49;101131.56;2088644;28;20007;-72
2023/03/19 00:11:40;;;;;;;;;;;;;;;17.48;59.69;101136.22;2088290;28;20294;-72
2023/03/19 00:12:42;;;;;;;;;;;;;;;17.48;59.50;101138.94;2082002;28;20293;-72
2023/03/19 00:13:44;;;;;;;;;;;;;;;17.48;59.48;101127.25;2071471;28;19926;-72
2023/03/19 00:14:47;;;;;;;;;;;;;;;17.48;59.58;101133.50;2072532;28;20295;-72
2023/03/19 00:15:49;;;;;;;;;;;;;;;17.48;59.43;101136.22;2083624;28;19981;-73
2023/03/19 00:16:51;;;;;;;;;;;;;;;17.48;59.51;101130.75;2080711;28;19925;-72
2023/03/19 00:17:55;;;;;;;;;;;;;;;17.48;59.51;101132.69;2082664;28;20431;-72
2023/03/19 00:18:58;;;;;;;;;;;;;;;17.48;59.46;101130.75;2080086;28;20451;-72
2023/03/19 00:20:00;;;;;;;;;;;;;;;17.47;59.48;101137.38;2080737;28;20020;-72
2023/03/19 00:21:02;;;;;;;;;;;;;;;17.48;59.53;101135.44;2073121;28;19932;-72
2023/03/19 00:22:04;;;;;;;;;;;;;;;17.47;59.50;101137.38;2072113;28;19925;-72
2023/03/19 00:23:07;;;;;;;;;;;;;;;17.48;59.50;101138.16;2074778;28;19925;-72
2023/03/19 00:24:11;;;;;;;;;;;;;;;17.47;59.37;101136.59;2064529;28;20012;-72
2023/03/19 00:25:13;;;;;;;;;;;;;;;17.48;59.65;101135.44;2079085;28;20406;-72
2023/03/19 00:26:15;;;;;;;;;;;;;;;17.48;59.48;101129.97;2080538;28;19999;-72
2023/03/19 00:27:18;;;;;;;;;;;;;;;17.47;59.60;101137.38;2080877;28;20340;-72
2023/03/19 00:28:20;;;;;;;;;;;;;;;17.47;59.47;101140.09;2085112;28;20305;-72
2023/03/19 00:29:24;;;;;;;;;;;;;;;17.48;59.35;101140.88;2081291;28;20015;-72
2023/03/19 00:30:26;;;;;;;;;;;;;;;17.48;59.42;101135.44;2075613;28;19932;-72
2023/03/19 00:31:29;;;;;;;;;;;;;;;17.48;59.31;101132.69;2064524;28;19926;-73
2023/03/19 00:32:32;;;;;;;;;;;;;;;17.48;59.65;101138.16;2071813;28;19926;-72
2023/03/19 00:33:35;;;;;;;;;;;;;;;17.48;59.58;101135.44;2072412;28;19932;-72
2023/03/19 00:34:36;;;;;;;;;;;;;;;17.47;59.48;101137.38;2075416;28;19925;-72
2023/03/19 00:35:40;;;;;;;;;;;;;;;17.48;59.41;101140.88;2072298;28;19925;-72
2023/03/19 00:36:42;;;;;;;;;;;;;;;17.46;59.43;101138.53;2078330;28;19925;-72
2023/03/19 00:37:45;;;;;;;;;;;;;;;17.48;59.28;101140.88;2084800;28;19932;-72
2023/03/19 00:38:47;;;;;;;;;;;;;;;17.47;59.52;101139.34;2079639;28;19979;-72
2023/03/19 00:39:51;;;;;;;;;;;;;;;17.48;59.62;101140.88;2080134;28;19925;-72
2023/03/19 00:40:53;;;;;;;;;;;;;;;17.47;59.37;101144.78;2082743;28;20405;-72
2023/03/19 00:41:56;;;;;;;;;;;;;;;17.47;59.38;101140.09;2082060;28;19974;-72
2023/03/19 00:42:58;;;;;;;;;;;;;;;17.48;59.47;101140.88;2077733;28;19971;-72
2023/03/19 00:44:01;;;;;;;;;;;;;;;17.47;59.41;101144.78;2063901;28;19921;-72
2023/03/19 00:45:04;;;;;;;;;;;;;;;17.47;59.29;101144.78;2076614;28;20051;-72
2023/03/19 00:46:08;;;;;;;;;;;;;;;17.48;59.25;101146.34;2077574;28;20020;-72
2023/03/19 00:47:10;;;;;;;;;;;;;;;17.47;59.57;101144.78;2065003;28;20326;-72
2023/03/19 00:48:12;;;;;;;;;;;;;;;17.47;59.40;101142.81;2078293;28;20764;-72
2023/03/19 00:49:14;;;;;;;;;;;;;;;17.47;59.60;101150.25;2081957;28;20377;-72
2023/03/19 00:50:17;;;;;;;;;;;;;;;17.47;59.59;101144.78;2082793;28;20283;-68
2023/03/19 00:51:19;;;;;;;;;;;;;;;17.46;59.47;101148.66;2075303;28;20337;-67
2023/03/19 00:52:22;;;;;;;;;;;;;;;17.47;59.54;101150.25;2077401;28;20434;-68
2023/03/19 00:53:23;;;;;;;;;;;;;;;17.47;59.47;101152.97;2083426;28;20359;-67
2023/03/19 00:54:27;;;;;;;;;;;;;;;17.45;59.53;101141.66;2082455;28;20369;-68
2023/03/19 00:55:32;;;;;;;;;;;;;;;17.47;59.52;101148.28;2088559;28;19925;-67
2023/03/19 00:56:35;;;;;;;;;;;;;;;17.47;59.29;101144.78;2073955;28;20358;-68
2023/03/19 00:57:37;;;;;;;;;;;;;;;17.46;59.21;101148.66;2072739;28;19932;-68
2023/03/19 00:58:40;;;;;;;;;;;;;;;17.47;59.40;101152.97;2084507;28;19931;-68
2023/03/19 00:59:42;;;;;;;;;;;;;;;17.47;59.18;101147.53;2074352;28;19925;-68
2023/03/19 01:00:45;;;;;;;;;;;;;;;17.46;59.32;101137.75;2073457;28;19925;-67
2023/03/19 01:01:48;;;;;;;;;;;;;;;17.46;59.13;101143.22;2084747;28;20393;-68
2023/03/19 01:02:50;;;;;;;;;;;;;;;17.47;59.27;101147.53;2081903;28;19925;-68
2023/03/19 01:03:52;;;;;;;;;;;;;;;17.46;59.28;101149.47;2074438;28;19967;-68
2023/03/19 01:04:55;;;;;;;;;;;;;;;17.46;59.37;101143.22;2075327;28;19964;-68
2023/03/19 01:05:57;;;;;;;;;;;;;;;17.46;59.12;101154.91;2078060;28;19994;-68
2023/03/19 01:07:00;;;;;;;;;;;;;;;17.46;59.47;101148.66;2074397;28;19926;-67
2023/03/19 01:08:01;;;;;;;;;;;;;;;17.46;59.24;101143.22;2085707;28;19921;-67
2023/03/19 01:09:05;;;;;;;;;;;;;;;17.46;59.25;101148.66;2084477;28;19932;-67
2023/03/19 01:10:07;;;;;;;;;;;;;;;17.45;59.34;101147.13;2084285;28;19951;-71
2023/03/19 01:11:13;;;;;;;;;;;;;;;17.46;59.44;101154.13;2083963;28;19979;-71
2023/03/19 01:12:15;;;;;;;;;;;;;;;17.45;59.30;101141.66;2075418;28;19921;-71
2023/03/19 01:13:17;;;;;;;;;;;;;;;17.45;59.37;101145.19;2069071;28;20697;-71
2023/03/19 01:14:20;;;;;;;;;;;;;;;17.45;59.31;101147.13;2076784;28;20376;-72
2023/03/19 01:15:22;;;;;;;;;;;;;;;17.45;59.44;101153.38;2081478;28;20515;-71
2023/03/19 01:16:25;;;;;;;;;;;;;;;17.46;59.28;101154.91;2086321;28;19972;-71
2023/03/19 01:17:27;;;;;;;;;;;;;;;17.46;59.23;101151.41;2073563;28;19926;-71
2023/03/19 01:18:30;;;;;;;;;;;;;;;17.45;59.15;101147.13;2073304;28;20645;-72
2023/03/19 01:19:32;;;;;;;;;;;;;;;17.46;59.28;101154.91;2077680;28;19929;-72
2023/03/19 01:20:35;;;;;;;;;;;;;;;17.46;59.25;101143.22;2080032;28;19975;-71
2023/03/19 01:21:37;;;;;;;;;;;;;;;17.46;59.29;101148.66;2078324;28;19970;-72
2023/03/19 01:22:40;;;;;;;;;;;;;;;17.46;59.29;101143.22;2067642;28;19926;-71
2023/03/19 01:23:42;;;;;;;;;;;;;;;17.46;59.27;101143.22;2082937;28;19928;-72
2023/03/19 01:24:45;;;;;;;;;;;;;;;17.46;59.17;101143.22;2084067;28;19974;-71
2023/03/19 01:25:47;;;;;;;;;;;;;;;17.46;59.28;101145.94;2061729;28;20442;-72
2023/03/19 01:26:52;;;;;;;;;;;;;;;17.46;59.14;101148.66;2060592;28;20363;-72
2023/03/19 01:28:01;;;;;;;;;;;;;;;17.44;59.24;101146.31;2069252;28;19967;-71
2023/03/19 01:29:04;;;;;;;;;;;;;;;17.46;58.97;101148.66;2065326;28;19961;-71
2023/03/19 01:30:08;;;;;;;;;;;;;;;17.45;59.29;101147.13;2078999;28;19921;-72
2023/03/19 01:31:29;;;;;;;;;;;;;;;17.45;59.36;101147.13;2078462;28;20008;-72
2023/03/19 01:32:48;;;;;;;;;;;;;;;17.45;59.26;101152.56;2080948;28;19925;-71
2023/03/19 01:34:06;;;;;;;;;;;;;;;17.45;59.00;101147.91;2081442;28;19925;-72
2023/03/19 01:35:14;;;;;;;;;;;;;;;17.45;59.44;101147.13;2078131;28;19924;-71
2023/03/19 01:36:17;;;;;;;;;;;;;;;17.45;59.31;101147.13;2067294;28;19922;-71
2023/03/19 01:37:30;;;;;;;;;;;;;;;17.44;59.22;101145.53;2060159;28;19922;-71
2023/03/19 01:38:33;;;;;;;;;;;;;;;17.44;59.06;101146.31;2071569;28;19982;-71
2023/03/19 01:39:38;;;;;;;;;;;;;;;17.44;59.04;101148.25;2073503;28;20521;-72
2023/03/19 01:40:46;;;;;;;;;;;;;;;17.44;58.90;101140.06;2067939;28;19925;-72
2023/03/19 01:41:48;;;;;;;;;;;;;;;17.44;59.26;101146.31;2072064;28;19925;-71
2023/03/19 01:43:19;;;;;;;;;;;;;;;17.44;59.41;101145.53;2043044;28;19923;-71
2023/03/19 01:44:25;;;;;;;;;;;;;;;17.44;59.40;101140.06;2073984;28;20325;-71
2023/03/19 01:45:47;;;;;;;;;;;;;;;17.44;59.28;101150.97;2082640;28;19921;-72
2023/03/19 01:47:23;;;;;;;;;;;;;;;17.45;59.02;101147.13;2079302;28;19925;-72
2023/03/19 01:48:45;;;;;;;;;;;;;;;17.45;59.13;101152.56;2084167;28;19925;-72
2023/03/19 01:49:52;;;;;;;;;;;;;;;17.39;59.12;101137.69;2085439;28;19932;-72
2023/03/19 01:50:56;;;;;;;;;;;;;;;17.44;59.46;101148.25;2075849;28;19924;-72
2023/03/19 01:52:34;;;;;;;;;;;;;;;17.44;59.20;101150.97;2044098;29;19926;-72
2023/03/19 01:53:57;;;;;;;;;;;;;;;17.44;59.38;101134.59;2048973;28;19937;-72
2023/03/19 01:55:09;;;;;;;;;;;;;;;17.44;59.27;101145.53;2058341;28;20307;-72
2023/03/19 01:56:22;;;;;;;;;;;;;;;17.44;59.07;101140.06;2070784;28;19975;-72
2023/03/19 01:57:33;;;;;;;;;;;;;;;17.44;59.31;101140.06;2065123;28;19979;-72
2023/03/19 01:58:57;;;;;;;;;;;;;;;17.43;59.29;101143.94;2047053;28;19942;-72
2023/03/19 02:00:13;;;;;;;;;;;;;;;17.43;59.41;101138.47;2070695;28;20371;-72
2023/03/19 02:01:17;;;;;;;;;;;;;;;17.44;59.15;101138.13;2063300;28;19927;-71
2023/03/19 02:02:26;;;;;;;;;;;;;;;17.44;59.42;101140.06;2062891;28;19929;-71
2023/03/19 02:03:29;;;;;;;;;;;;;;;17.44;59.01;101135.41;2068457;28;19925;-71
2023/03/19 02:04:47;;;;;;;;;;;;;;;17.44;58.98;101137.34;2079197;28;20003;-72
2023/03/19 02:05:51;;;;;;;;;;;;;;;17.44;59.15;101137.34;2064825;28;19926;-72
2023/03/19 02:06:56;;;;;;;;;;;;;;;17.44;59.16;101137.34;2063333;28;19972;-71
2023/03/19 02:07:59;;;;;;;;;;;;;;;17.44;59.34;101148.25;2069710;28;19925;-71
2023/03/19 02:09:03;;;;;;;;;;;;;;;17.43;59.23;101144.72;2083301;28;19958;-71
2023/03/19 02:10:07;;;;;;;;;;;;;;;17.44;59.13;101150.97;2084185;28;19925;-71
2023/03/19 02:11:10;;;;;;;;;;;;;;;17.44;59.18;101150.97;2081270;28;20401;-72
2023/03/19 02:12:12;;;;;;;;;;;;;;;17.44;59.26;101148.25;2082496;28;20402;-72
2023/03/19 02:13:15;;;;;;;;;;;;;;;17.43;58.97;101144.72;2082976;28;19929;-72
2023/03/19 02:14:19;;;;;;;;;;;;;;;17.44;59.14;101140.06;2081582;28;19925;-71
2023/03/19 02:15:22;;;;;;;;;;;;;;;17.44;58.94;101145.53;2066904;28;19963;-71
2023/03/19 02:16:25;;;;;;;;;;;;;;;17.43;59.03;101143.94;2078737;28;19932;-71
2023/03/19 02:17:29;;;;;;;;;;;;;;;17.44;59.47;101148.25;2074763;28;19997;-71
2023/03/19 02:18:31;;;;;;;;;;;;;;;17.44;59.23;101143.59;2070437;28;20299;-71
2023/03/19 02:19:38;;;;;;;;;;;;;;;17.44;59.13;101140.06;2070772;28;19932;-71
2023/03/19 02:20:43;;;;;;;;;;;;;;;17.44;58.86;101145.53;2067819;28;20426;-71
2023/03/19 02:21:48;;;;;;;;;;;;;;;17.43;59.20;101133.03;2070833;28;20341;-71
2023/03/19 02:22:57;;;;;;;;;;;;;;;17.44;59.31;101134.59;2069273;28;20528;-71
2023/03/19 02:24:03;;;;;;;;;;;;;;;17.44;59.11;101142.78;2074983;28;20011;-71
2023/03/19 02:25:24;;;;;;;;;;;;;;;17.44;59.31;101140.06;2095743;28;20918;-71
2023/03/19 02:26:28;;;;;;;;;;;;;;;17.44;59.22;101137.34;2085084;28;19925;-71
2023/03/19 02:27:36;;;;;;;;;;;;;;;17.44;59.14;101140.06;2079709;28;19932;-71
2023/03/19 02:28:39;;;;;;;;;;;;;;;17.43;59.04;101133.81;2066191;28;19964;-71
2023/03/19 02:29:43;;;;;;;;;;;;;;;17.44;58.98;101137.34;2049510;28;19926;-71
2023/03/19 02:30:45;;;;;;;;;;;;;;;17.42;59.13;101131.47;2065725;28;19955;-71
2023/03/19 02:31:48;;;;;;;;;;;;;;;17.44;59.35;101134.59;2083856;28;20677;-72
2023/03/19 02:32:49;;;;;;;;;;;;;;;17.44;59.22;101134.59;2082265;28;19964;-71
2023/03/19 02:33:57;;;;;;;;;;;;;;;17.43;59.06;101138.47;2081179;28;20285;-71
2023/03/19 02:34:59;;;;;;;;;;;;;;;17.43;58.96;101136.53;2075201;28;20401;-71
2023/03/19 02:36:02;;;;;;;;;;;;;;;17.44;59.42;101140.06;2068871;28;20311;-72
2023/03/19 02:37:08;;;;;;;;;;;;;;;17.44;59.17;101137.34;2071787;28;19925;-72
2023/03/19 02:38:11;;;;;;;;;;;;;;;17.44;59.10;101134.59;2076175;28;19921;-71
2023/03/19 02:39:17;;;;;;;;;;;;;;;17.44;58.91;101140.84;2069613;28;19936;-71
2023/03/19 02:40:22;;;;;;;;;;;;;;;17.44;58.95;101134.59;2068178;28;19928;-72
2023/03/19 02:41:25;;;;;;;;;;;;;;;17.44;59.18;101140.06;2074349;28;19921;-71
2023/03/19 02:42:29;;;;;;;;;;;;;;;17.44;59.36;101129.16;2064756;28;20016;-71
2023/03/19 02:43:32;;;;;;;;;;;;;;;17.43;58.88;101138.47;2057016;28;19926;-72
2023/03/19 02:44:36;;;;;;;;;;;;;;;17.44;59.15;101134.59;2071761;28;19921;-72
2023/03/19 02:45:38;;;;;;;;;;;;;;;17.38;59.04;101131.44;2066493;28;20587;-72
2023/03/19 02:46:41;;;;;;;;;;;;;;;17.44;58.98;101140.06;2071029;28;19926;-71
2023/03/19 02:47:43;;;;;;;;;;;;;;;17.43;59.10;101139.28;2070759;28;20012;-72
2023/03/19 02:48:47;;;;;;;;;;;;;;;17.43;59.05;101139.28;2074022;28;19944;-71
2023/03/19 02:49:49;;;;;;;;;;;;;;;17.43;59.15;101138.47;2082911;28;19944;-72
2023/03/19 02:50:52;;;;;;;;;;;;;;;17.43;59.14;101135.75;2079324;28;19951;-72
2023/03/19 02:51:54;;;;;;;;;;;;;;;17.43;59.17;101147.47;2068486;28;19929;-72
2023/03/19 02:52:57;;;;;;;;;;;;;;;17.43;59.10;101133.03;2071469;28;19929;-72
2023/03/19 02:53:59;;;;;;;;;;;;;;;17.43;59.34;101143.94;2074574;28;20365;-72
2023/03/19 02:55:02;;;;;;;;;;;;;;;17.43;59.10;101138.47;2067172;28;20398;-72
2023/03/19 02:56:04;;;;;;;;;;;;;;;17.43;59.00;101147.47;2072643;28;19960;-72
2023/03/19 02:57:07;;;;;;;;;;;;;;;17.43;59.16;101152.13;2082412;28;19924;-72
2023/03/19 02:58:11;;;;;;;;;;;;;;;17.43;59.06;101143.94;2084978;28;19975;-72
2023/03/19 02:59:13;;;;;;;;;;;;;;;17.42;59.30;101142.38;2071337;28;20433;-71
2023/03/19 03:00:17;;;;;;;;;;;;;;;17.43;59.14;101149.41;2064248;28;20075;-72
2023/03/19 03:01:20;;;;;;;;;;;;;;;17.43;59.05;101146.66;2077342;28;19928;-72
2023/03/19 03:02:22;;;;;;;;;;;;;;;17.42;58.83;101150.56;2083708;28;20421;-71
2023/03/19 03:03:26;;;;;;;;;;;;;;;17.43;58.81;101149.41;2064768;28;19925;-71
2023/03/19 03:04:28;;;;;;;;;;;;;;;17.42;59.14;101151.38;2080472;28;19974;-72
2023/03/19 03:05:30;;;;;;;;;;;;;;;17.42;59.16;101145.13;2090842;28;19921;-72
2023/03/19 03:06:32;;;;;;;;;;;;;;;17.41;58.91;101149.00;2078537;28;19924;-72
2023/03/19 03:07:37;;;;;;;;;;;;;;;17.42;58.96;101153.31;2079896;28;20282;-72
2023/03/19 03:08:39;;;;;;;;;;;;;;;17.42;58.78;101150.56;2088636;28;19975;-72
2023/03/19 03:09:43;;;;;;;;;;;;;;;17.41;59.11;101154.47;2079909;28;19951;-72
2023/03/19 03:10:45;;;;;;;;;;;;;;;17.42;59.04;101158.75;2076681;28;19933;-73
2023/03/19 03:11:47;;;;;;;;;;;;;;;17.42;58.89;101164.22;2083981;28;20036;-72
2023/03/19 03:12:49;;;;;;;;;;;;;;;17.41;59.16;101159.94;2099301;28;20326;-72
2023/03/19 03:13:53;;;;;;;;;;;;;;;17.42;59.18;101164.22;2099933;28;20373;-71
2023/03/19 03:14:55;;;;;;;;;;;;;;;17.42;59.19;101161.50;2088761;28;19928;-72
2023/03/19 03:15:58;;;;;;;;;;;;;;;17.41;58.91;101162.66;2085439;28;19961;-70
2023/03/19 03:17:00;;;;;;;;;;;;;;;17.42;58.99;101166.94;2075094;28;19995;-70
2023/03/19 03:18:03;;;;;;;;;;;;;;;17.42;59.20;101164.22;2080077;28;19968;-70
2023/03/19 03:19:05;;;;;;;;;;;;;;;17.37;59.16;101161.84;2078745;28;19968;-72
2023/03/19 03:20:10;;;;;;;;;;;;;;;17.42;59.09;101169.69;2081334;28;19928;-72
2023/03/19 03:21:12;;;;;;;;;;;;;;;17.41;58.86;101162.66;2088873;28;19982;-72
2023/03/19 03:22:14;;;;;;;;;;;;;;;17.42;59.16;101169.69;2090909;28;19920;-72
2023/03/19 03:23:33;;;;;;;;;;;;;;;17.42;59.07;101172.41;2085519;28;20397;-72
2023/03/19 03:24:38;;;;;;;;;;;;;;;17.41;58.92;101170.84;2086767;28;19929;-71
2023/03/19 03:25:40;;;;;;;;;;;;;;;17.41;58.83;101171.63;2079719;28;19924;-71
2023/03/19 03:26:43;;;;;;;;;;;;;;;17.41;58.99;101171.63;2083789;28;19970;-72
2023/03/19 03:27:45;;;;;;;;;;;;;;;17.42;58.88;101181.38;2079433;28;20340;-72
2023/03/19 03:28:48;;;;;;;;;;;;;;;17.41;59.11;101181.78;2071148;28;19925;-72
2023/03/19 03:29:51;;;;;;;;;;;;;;;17.42;59.04;101181.38;2079670;28;20276;-72
2023/03/19 03:30:58;;;;;;;;;;;;;;;17.42;58.79;101180.59;2083439;28;20059;-72
2023/03/19 03:32:00;;;;;;;;;;;;;;;17.42;58.83;101180.59;2081005;28;19968;-72
2023/03/19 03:33:02;;;;;;;;;;;;;;;17.41;59.08;101184.50;2080331;28;19925;-72
2023/03/19 03:34:04;;;;;;;;;;;;;;;17.42;58.82;101180.59;2080844;28;20324;-72
2023/03/19 03:35:08;;;;;;;;;;;;;;;17.42;59.03;101177.88;2077955;28;19929;-72
2023/03/19 03:36:10;;;;;;;;;;;;;;;17.41;58.78;101184.50;2070903;28;20000;-72
2023/03/19 03:37:12;;;;;;;;;;;;;;;17.41;58.94;101184.50;2086019;28;19979;-72
2023/03/19 03:38:14;;;;;;;;;;;;;;;17.41;58.90;101184.50;2093606;28;19981;-72
2023/03/19 03:39:17;;;;;;;;;;;;;;;17.40;58.87;101189.16;2089556;28;19963;-69
2023/03/19 03:40:20;;;;;;;;;;;;;;;17.40;59.09;101178.25;2093869;28;19972;-69
2023/03/19 03:41:27;;;;;;;;;;;;;;;17.42;59.05;101186.06;2077902;28;20247;-69
2023/03/19 03:42:28;;;;;;;;;;;;;;;17.40;58.96;101182.91;2079937;28;19971;-69
2023/03/19 03:43:31;;;;;;;;;;;;;;;17.39;59.20;101181.34;2083076;28;19975;-69
2023/03/19 03:44:33;;;;;;;;;;;;;;;17.40;59.12;101182.91;2069785;28;19929;-70
2023/03/19 03:45:37;;;;;;;;;;;;;;;17.40;59.10;101182.91;2072553;28;19972;-70
2023/03/19 03:46:39;;;;;;;;;;;;;;;17.40;58.97;101180.19;2086525;28;19921;-70
2023/03/19 03:47:42;;;;;;;;;;;;;;;17.38;58.88;101186.03;2084108;28;20385;-69
2023/03/19 03:48:44;;;;;;;;;;;;;;;17.39;59.01;101184.09;2071402;28;19929;-69
2023/03/19 03:49:47;;;;;;;;;;;;;;;17.39;58.80;101176.69;2073148;28;20299;-70
2023/03/19 03:50:49;;;;;;;;;;;;;;;17.38;59.26;101180.56;2070101;28;19921;-69
2023/03/19 03:51:56;;;;;;;;;;;;;;;17.39;59.12;101184.09;2084769;28;19936;-71
2023/03/19 03:52:58;;;;;;;;;;;;;;;17.39;59.17;101184.09;2081463;28;19978;-71
2023/03/19 03:54:01;;;;;;;;;;;;;;;17.39;59.07;101184.09;2071044;28;19928;-72
2023/03/19 03:55:04;;;;;;;;;;;;;;;17.40;59.13;101191.09;2078718;28;20475;-71
2023/03/19 03:56:07;;;;;;;;;;;;;;;17.39;59.10;101186.81;2071315;28;19929;-71
2023/03/19 03:57:09;;;;;;;;;;;;;;;17.39;59.06;101192.28;2076031;28;19932;-71
2023/03/19 03:58:12;;;;;;;;;;;;;;;17.39;59.02;101187.59;2075489;28;20627;-71
2023/03/19 03:59:15;;;;;;;;;;;;;;;17.39;59.17;101189.53;2072169;28;20308;-72
2023/03/19 04:00:18;;;;;;;;;;;;;;;17.40;59.05;101183.72;2086320;28;20305;-71
2023/03/19 04:01:21;;;;;;;;;;;;;;;17.40;58.77;101191.09;2086104;28;19921;-71
2023/03/19 04:02:28;;;;;;;;;;;;;;;17.39;58.96;101184.88;2059733;28;19930;-71
2023/03/19 04:03:30;;;;;;;;;;;;;;;17.39;58.95;101176.69;2066913;28;20393;-71
2023/03/19 04:04:33;;;;;;;;;;;;;;;17.39;59.08;101189.53;2095381;28;20006;-70
2023/03/19 04:05:36;;;;;;;;;;;;;;;17.39;58.95;101182.16;2087653;28;19921;-71
2023/03/19 04:06:39;;;;;;;;;;;;;;;17.40;58.76;101193.84;2076293;28;19925;-71
2023/03/19 04:08:00;;;;;;;;;;;;;;;17.40;58.73;101183.72;2073843;28;19956;-70
2023/03/19 04:09:03;;;;;;;;;;;;;;;17.40;59.03;101183.72;2070498;28;19995;-71
2023/03/19 04:10:06;;;;;;;;;;;;;;;17.40;58.87;101177.44;2072287;28;20472;-71
2023/03/19 04:11:09;;;;;;;;;;;;;;;17.40;59.09;101189.16;2081359;28;20378;-71
2023/03/19 04:12:11;;;;;;;;;;;;;;;17.40;58.85;101186.44;2081637;28;20496;-71
2023/03/19 04:13:14;;;;;;;;;;;;;;;17.40;58.87;101182.91;2077043;28;19960;-71
2023/03/19 04:14:16;;;;;;;;;;;;;;;17.40;58.91;101182.91;2075104;28;20023;-71
2023/03/19 04:15:19;;;;;;;;;;;;;;;17.41;58.86;101184.50;2068748;28;19926;-71
2023/03/19 04:16:23;;;;;;;;;;;;;;;17.41;58.80;101184.50;2078210;28;19925;-71
2023/03/19 04:17:26;;;;;;;;;;;;;;;17.41;58.68;101181.78;2084016;28;19921;-71
2023/03/19 04:18:28;;;;;;;;;;;;;;;17.41;58.57;101184.50;2065131;28;19925;-71
2023/03/19 04:19:31;;;;;;;;;;;;;;;17.42;58.93;101186.06;2073914;28;20358;-71
2023/03/19 04:20:33;;;;;;;;;;;;;;;17.40;58.88;101183.72;2072477;28;19948;-71
2023/03/19 04:21:36;;;;;;;;;;;;;;;17.41;58.65;101192.69;2077789;28;20348;-71
2023/03/19 04:22:38;;;;;;;;;;;;;;;17.42;58.63;101191.50;2071171;28;19961;-71
2023/03/19 04:23:41;;;;;;;;;;;;;;;17.42;58.70;101191.50;2072560;28;19929;-71
2023/03/19 04:24:43;;;;;;;;;;;;;;;17.41;58.89;101196.19;2086994;28;19968;-72
2023/03/19 04:25:47;;;;;;;;;;;;;;;17.40;58.56;101188.38;2067251;28;20646;-72
2023/03/19 04:26:49;;;;;;;;;;;;;;;17.40;58.95;101189.16;2072198;28;19937;-72
2023/03/19 04:27:52;;;;;;;;;;;;;;;17.40;58.92;101191.09;2081749;28;20386;-71
2023/03/19 04:28:55;;;;;;;;;;;;;;;17.40;58.79;101193.84;2074931;28;19925;-71
2023/03/19 04:29:57;;;;;;;;;;;;;;;17.40;58.89;101194.63;2078607;28;19937;-71
2023/03/19 04:31:00;;;;;;;;;;;;;;;17.40;59.00;101193.84;2073447;28;19972;-72
2023/03/19 04:32:05;;;;;;;;;;;;;;;17.39;58.82;101195.00;2064614;28;19925;-71
2023/03/19 04:33:08;;;;;;;;;;;;;;;17.39;58.68;101195.00;2080462;28;20292;-71
2023/03/19 04:34:11;;;;;;;;;;;;;;;17.39;58.79;101195.00;2089098;28;20375;-71
2023/03/19 04:35:13;;;;;;;;;;;;;;;17.38;58.68;101196.16;2073980;28;19947;-72
2023/03/19 04:36:16;;;;;;;;;;;;;;;17.38;58.97;101187.97;2061124;28;20347;-72
2023/03/19 04:37:19;;;;;;;;;;;;;;;17.38;58.99;101187.97;2078075;28;22022;-71
2023/03/19 04:38:25;;;;;;;;;;;;;;;17.37;58.75;101189.91;2078068;28;19924;-71
2023/03/19 04:39:27;;;;;;;;;;;;;;;17.38;59.07;101193.41;2065735;28;20029;-71
2023/03/19 04:40:29;;;;;;;;;;;;;;;17.37;58.67;101187.19;2064434;28;19933;-71
2023/03/19 04:41:32;;;;;;;;;;;;;;;17.38;58.88;101196.16;2072940;28;20008;-71
2023/03/19 04:42:58;;;;;;;;;;;;;;;17.38;58.84;101198.88;2069156;28;20382;-72
2023/03/19 04:44:06;;;;;;;;;;;;;;;17.37;58.80;101189.13;2078839;28;19925;-72
2023/03/19 04:45:10;;;;;;;;;;;;;;;17.37;58.75;101189.13;2081372;28;19925;-71
2023/03/19 04:46:13;;;;;;;;;;;;;;;17.36;59.01;101193.78;2091728;28;19928;-71
2023/03/19 04:47:18;;;;;;;;;;;;;;;17.37;58.59;101197.31;2079075;28;20370;-72
2023/03/19 04:48:25;;;;;;;;;;;;;;;17.36;58.80;101193.78;2066089;28;19975;-72
2023/03/19 04:49:29;;;;;;;;;;;;;;;17.37;58.65;101194.59;2073852;28;20322;-71
2023/03/19 04:50:31;;;;;;;;;;;;;;;17.36;58.93;101191.06;2072600;28;19961;-71
2023/03/19 04:51:35;;;;;;;;;;;;;;;17.36;58.59;101198.50;2066700;28;20350;-72
2023/03/19 04:52:36;;;;;;;;;;;;;;;17.37;58.73;101197.31;2074245;28;19925;-71
2023/03/19 04:53:39;;;;;;;;;;;;;;;17.36;58.95;101195.75;2072277;28;20374;-72
2023/03/19 04:54:41;;;;;;;;;;;;;;;17.36;58.63;101198.50;2064335;28;20020;-71
2023/03/19 04:55:44;;;;;;;;;;;;;;;17.34;58.62;101190.69;2069763;28;20024;-72
2023/03/19 04:56:51;;;;;;;;;;;;;;;17.36;58.82;101198.50;2063018;28;19988;-71
2023/03/19 04:57:57;;;;;;;;;;;;;;;17.36;58.88;101190.31;2062028;28;20663;-72
2023/03/19 04:59:01;;;;;;;;;;;;;;;17.36;59.01;101191.06;2063552;28;19941;-72
2023/03/19 05:00:05;;;;;;;;;;;;;;;17.36;58.82;101195.75;2050078;28;19922;-71
2023/03/19 05:01:11;;;;;;;;;;;;;;;17.36;58.64;101193.03;2061153;28;20677;-71
2023/03/19 05:02:33;;;;;;;;;;;;;;;17.37;58.94;101194.59;2065293;28;20302;-72
2023/03/19 05:03:35;;;;;;;;;;;;;;;17.36;58.55;101198.50;2071289;28;19925;-72
2023/03/19 05:04:38;;;;;;;;;;;;;;;17.37;58.67;101200.03;2076539;28;20475;-72
2023/03/19 05:05:44;;;;;;;;;;;;;;;17.38;58.81;101204.34;2064466;28;20279;-72
2023/03/19 05:06:47;;;;;;;;;;;;;;;17.37;58.70;101202.78;2056358;28;19925;-72
2023/03/19 05:07:48;;;;;;;;;;;;;;;17.37;58.73;101208.25;2062080;28;20398;-72
2023/03/19 05:08:52;;;;;;;;;;;;;;;17.37;58.78;101208.25;2060855;28;20023;-72
2023/03/19 05:09:55;;;;;;;;;;;;;;;17.37;58.72;101205.50;2058583;28;19925;-72
2023/03/19 05:10:58;;;;;;;;;;;;;;;17.37;58.43;101208.25;2063531;28;20025;-71
2023/03/19 05:12:04;;;;;;;;;;;;;;;17.37;58.84;101202.78;2070306;28;20470;-72
2023/03/19 05:13:13;;;;;;;;;;;;;;;17.37;58.62;101205.50;2074008;28;19972;-72
2023/03/19 05:14:21;;;;;;;;;;;;;;;17.37;58.69;101210.97;2066259;28;19991;-72
2023/03/19 05:15:41;;;;;;;;;;;;;;;17.36;58.64;101201.22;2066603;28;19937;-72
2023/03/19 05:16:44;;;;;;;;;;;;;;;17.37;58.68;101208.25;2072307;28;19933;-72
2023/03/19 05:17:48;;;;;;;;;;;;;;;17.36;58.61;101199.25;2074811;28;19929;-72
2023/03/19 05:18:55;;;;;;;;;;;;;;;17.36;58.74;101209.41;2072345;28;20370;-72
2023/03/19 05:19:58;;;;;;;;;;;;;;;17.37;58.85;101205.50;2064069;28;19930;-72
2023/03/19 05:21:03;;;;;;;;;;;;;;;17.36;58.49;101201.97;2061213;28;19926;-71
2023/03/19 05:22:05;;;;;;;;;;;;;;;17.37;58.75;101210.97;2069119;28;19972;-72
2023/03/19 05:23:08;;;;;;;;;;;;;;;17.36;58.48;101209.41;2071715;28;19952;-72
2023/03/19 05:24:28;;;;;;;;;;;;;;;17.36;58.63;101203.94;2077473;28;20279;-71
2023/03/19 05:25:31;;;;;;;;;;;;;;;17.35;58.77;101205.88;2073181;28;19975;-72
2023/03/19 05:26:34;;;;;;;;;;;;;;;17.35;58.36;101203.16;2082989;28;19935;-72
2023/03/19 05:27:51;;;;;;;;;;;;;;;17.35;58.67;101207.81;2078472;28;19932;-71
2023/03/19 05:28:58;;;;;;;;;;;;;;;17.34;58.42;101211.72;2074208;28;19975;-71
2023/03/19 05:30:09;;;;;;;;;;;;;;;17.35;58.54;101199.63;2079530;28;19921;-72
2023/03/19 05:31:25;;;;;;;;;;;;;;;17.34;58.38;101200.81;2085619;28;20019;-72